createdAt,value
2017-08-26T00:00:41.867Z,68.5
2017-08-26T00:01:43.485Z,68.3
2017-08-26T00:02:45.105Z,68.5
2017-08-26T00:03:46.733Z,68.3
2017-08-26T00:04:48.349Z,68.3
2017-08-26T00:05:49.971Z,68.3
2017-08-26T00:06:51.587Z,68.4
2017-08-26T00:07:53.202Z,68.7
2017-08-26T00:08:54.828Z,68.8
2017-08-26T00:09:56.446Z,68.4
2017-08-26T00:10:58.063Z,68.6
2017-08-26T00:11:59.681Z,68.6
2017-08-26T00:13:01.304Z,68.5
2017-08-26T00:14:02.929Z,69.1
2017-08-26T00:15:04.542Z,68.8
2017-08-26T00:16:06.164Z,69.0
2017-08-26T00:17:07.781Z,69.0
2017-08-26T00:18:09.397Z,68.4
2017-08-26T00:19:11.014Z,69.2
2017-08-26T00:20:12.638Z,69.4
2017-08-26T00:21:14.265Z,69.2
2017-08-26T00:22:15.889Z,69.4
2017-08-26T00:23:17.503Z,69.3
2017-08-26T00:24:19.121Z,68.8
2017-08-26T00:25:20.746Z,68.8
2017-08-26T00:26:22.366Z,69.2
2017-08-26T00:27:23.983Z,69.3
2017-08-26T00:28:25.598Z,69.2
2017-08-26T00:29:27.226Z,69.1
2017-08-26T00:30:28.845Z,69.1
2017-08-26T00:31:30.461Z,69.2
2017-08-26T00:32:32.080Z,69.1
2017-08-26T00:33:33.707Z,69.0
2017-08-26T00:34:35.326Z,68.4
2017-08-26T00:35:36.945Z,68.6
2017-08-26T00:36:38.560Z,68.6
2017-08-26T00:37:40.183Z,68.3
2017-08-26T00:38:41.801Z,68.7
2017-08-26T00:39:43.418Z,68.7
2017-08-26T00:40:45.036Z,68.6
2017-08-26T00:41:46.666Z,68.6
2017-08-26T00:42:48.292Z,68.3
2017-08-26T00:43:49.905Z,68.5
2017-08-26T00:44:51.521Z,68.9
2017-08-26T00:45:53.142Z,68.5
2017-08-26T00:46:54.768Z,68.6
2017-08-26T00:47:56.382Z,68.7
2017-08-26T00:48:58.003Z,69.4
2017-08-26T00:49:59.623Z,68.8
2017-08-26T00:51:01.255Z,69.2
2017-08-26T00:52:02.867Z,69.3
2017-08-26T00:53:04.482Z,69.3
2017-08-26T00:54:06.110Z,69.2
2017-08-26T00:55:07.736Z,69.2
2017-08-26T00:56:09.354Z,69.1
2017-08-26T00:57:10.972Z,69.5
2017-08-26T00:58:12.595Z,69.9
2017-08-26T00:59:14.220Z,69.9
2017-08-26T01:00:15.834Z,69.8
2017-08-26T01:01:17.452Z,69.8
2017-08-26T01:02:19.079Z,69.9
2017-08-26T01:03:20.701Z,70.0
2017-08-26T01:04:22.317Z,70.2
2017-08-26T01:05:23.930Z,70.6
2017-08-26T01:06:25.575Z,71.3
2017-08-26T01:07:27.186Z,71.2
2017-08-26T01:08:28.799Z,70.8
2017-08-26T01:09:30.422Z,71.0
2017-08-26T01:10:32.042Z,70.8
2017-08-26T01:11:33.653Z,71.4
2017-08-26T01:12:35.280Z,71.9
2017-08-26T01:13:36.900Z,71.8
2017-08-26T01:14:38.515Z,71.8
2017-08-26T01:15:40.148Z,71.8
2017-08-26T01:16:41.771Z,71.7
2017-08-26T01:17:43.388Z,71.5
2017-08-26T01:18:45.003Z,72.3
2017-08-26T01:19:46.621Z,71.6
2017-08-26T01:20:48.242Z,72.1
2017-08-26T01:21:49.868Z,72.3
2017-08-26T01:22:51.482Z,72.1
2017-08-26T01:23:53.105Z,72.3
2017-08-26T01:24:54.733Z,72.6
2017-08-26T01:25:56.344Z,72.3
2017-08-26T01:26:57.961Z,72.3
2017-08-26T01:27:59.581Z,72.4
2017-08-26T01:29:01.203Z,73.0
2017-08-26T01:30:02.829Z,72.7
2017-08-26T01:31:04.446Z,73.1
2017-08-26T01:32:06.067Z,73.3
2017-08-26T01:33:07.693Z,73.5
2017-08-26T01:34:09.313Z,74.3
2017-08-26T01:35:10.935Z,73.9
2017-08-26T01:36:12.551Z,73.7
2017-08-26T01:37:14.181Z,73.5
2017-08-26T01:38:15.799Z,74.1
2017-08-26T01:39:17.416Z,74.2
2017-08-26T01:40:19.045Z,74.0
2017-08-26T01:41:20.661Z,74.7
2017-08-26T01:42:22.285Z,73.8
2017-08-26T01:43:23.901Z,74.2
2017-08-26T01:44:25.518Z,74.3
2017-08-26T01:45:27.136Z,74.4
2017-08-26T01:46:28.765Z,74.9
2017-08-26T01:47:30.385Z,75.2
2017-08-26T01:48:31.995Z,75.0
2017-08-26T01:49:33.612Z,74.8
2017-08-26T01:50:35.227Z,75.1
2017-08-26T01:51:36.857Z,75.1
2017-08-26T01:52:38.470Z,75.5
2017-08-26T01:53:40.089Z,75.8
2017-08-26T01:54:41.708Z,75.4
2017-08-26T01:55:43.333Z,75.8
2017-08-26T01:56:44.948Z,75.0
2017-08-26T01:57:46.567Z,75.0
2017-08-26T01:58:48.175Z,74.8
2017-08-26T01:59:49.794Z,74.9
2017-08-26T02:00:51.411Z,75.1
2017-08-26T02:01:53.021Z,75.6
2017-08-26T02:02:54.635Z,75.3
2017-08-26T02:03:56.255Z,75.5
2017-08-26T02:04:57.871Z,75.9
2017-08-26T02:05:59.485Z,75.6
2017-08-26T02:07:01.097Z,75.4
2017-08-26T02:08:02.714Z,75.7
2017-08-26T02:09:04.331Z,75.5
2017-08-26T02:10:05.941Z,75.3
2017-08-26T02:11:07.552Z,75.4
2017-08-26T02:12:09.171Z,75.7
2017-08-26T02:13:10.783Z,76.1
2017-08-26T02:14:12.402Z,76.1
2017-08-26T02:15:14.020Z,76.7
2017-08-26T02:16:15.635Z,76.9
2017-08-26T02:17:17.241Z,76.8
2017-08-26T02:18:18.854Z,77.5
2017-08-26T02:19:20.470Z,78.0
2017-08-26T02:20:22.092Z,78.0
2017-08-26T02:21:23.697Z,77.9
2017-08-26T02:22:25.311Z,78.1
2017-08-26T02:23:26.928Z,78.7
2017-08-26T02:24:28.542Z,78.1
2017-08-26T02:25:30.153Z,78.1
2017-08-26T02:26:31.776Z,77.4
2017-08-26T02:27:33.383Z,77.6
2017-08-26T02:28:35.001Z,78.0
2017-08-26T02:29:36.610Z,77.7
2017-08-26T02:30:38.222Z,77.5
2017-08-26T02:31:39.837Z,78.5
2017-08-26T02:32:41.451Z,78.3
2017-08-26T02:33:43.073Z,78.9
2017-08-26T02:34:44.674Z,78.6
2017-08-26T02:35:46.293Z,78.7
2017-08-26T02:36:47.912Z,79.1
2017-08-26T02:37:49.521Z,78.6
2017-08-26T02:38:51.130Z,78.9
2017-08-26T02:39:52.747Z,79.3
2017-08-26T02:40:54.363Z,79.0
2017-08-26T02:41:55.979Z,79.9
2017-08-26T02:42:57.597Z,79.4
2017-08-26T02:43:59.219Z,79.2
2017-08-26T02:45:00.821Z,79.2
2017-08-26T02:46:02.441Z,79.4
2017-08-26T02:47:04.056Z,79.4
2017-08-26T02:48:05.668Z,79.4
2017-08-26T02:49:07.280Z,79.8
2017-08-26T02:50:08.895Z,79.4
2017-08-26T02:51:10.526Z,79.2
2017-08-26T02:52:12.134Z,79.6
2017-08-26T02:53:13.737Z,79.4
2017-08-26T02:54:15.353Z,79.6
2017-08-26T02:55:16.969Z,79.2
2017-08-26T02:56:18.585Z,79.2
2017-08-26T02:57:20.200Z,80.2
2017-08-26T02:58:21.816Z,79.7
2017-08-26T02:59:23.426Z,79.2
2017-08-26T03:00:25.036Z,79.3
2017-08-26T03:01:26.654Z,79.8
2017-08-26T03:02:28.265Z,80.0
2017-08-26T03:03:29.881Z,79.7
2017-08-26T03:04:31.500Z,79.4
2017-08-26T03:05:33.110Z,79.9
2017-08-26T03:06:34.730Z,79.7
2017-08-26T03:07:36.342Z,79.7
2017-08-26T03:08:37.954Z,79.7
2017-08-26T03:09:39.574Z,79.2
2017-08-26T03:10:41.188Z,79.5
2017-08-26T03:11:42.805Z,79.2
2017-08-26T03:12:44.423Z,79.7
2017-08-26T03:13:46.030Z,79.9
2017-08-26T03:14:47.647Z,79.7
2017-08-26T03:15:49.258Z,79.6
2017-08-26T03:16:50.869Z,79.7
2017-08-26T03:17:52.488Z,79.6
2017-08-26T03:18:54.104Z,79.5
2017-08-26T03:19:55.739Z,79.8
2017-08-26T03:20:57.331Z,80.1
2017-08-26T03:21:58.940Z,80.1
2017-08-26T03:23:00.578Z,79.5
2017-08-26T03:24:02.172Z,80.1
2017-08-26T03:25:03.777Z,79.7
2017-08-26T03:26:05.397Z,80.0
2017-08-26T03:27:07.014Z,79.9
2017-08-26T03:28:08.628Z,80.3
2017-08-26T03:29:10.237Z,79.9
2017-08-26T03:30:11.865Z,80.8
2017-08-26T03:31:13.466Z,80.5
2017-08-26T03:32:15.082Z,79.7
2017-08-26T03:33:16.698Z,79.8
2017-08-26T03:34:18.322Z,80.0
2017-08-26T03:35:19.932Z,79.5
2017-08-26T03:36:21.542Z,79.2
2017-08-26T03:37:23.153Z,79.5
2017-08-26T03:38:24.768Z,79.5
2017-08-26T03:39:26.383Z,79.4
2017-08-26T03:40:28.000Z,79.2
2017-08-26T03:41:29.617Z,79.9
2017-08-26T03:42:31.228Z,79.6
2017-08-26T03:43:32.840Z,79.2
2017-08-26T03:44:34.452Z,79.4
2017-08-26T03:45:36.071Z,79.4
2017-08-26T03:46:37.686Z,79.5
2017-08-26T03:47:39.303Z,79.4
2017-08-26T03:48:40.917Z,79.8
2017-08-26T03:49:42.534Z,79.1
2017-08-26T03:50:44.147Z,79.6
2017-08-26T03:51:45.764Z,79.1
2017-08-26T03:52:47.377Z,78.8
2017-08-26T03:53:48.994Z,79.2
2017-08-26T03:54:50.605Z,78.7
2017-08-26T03:55:52.221Z,78.8
2017-08-26T03:56:53.837Z,79.0
2017-08-26T03:57:55.454Z,79.3
2017-08-26T03:58:57.064Z,79.3
2017-08-26T03:59:58.677Z,78.9
2017-08-26T04:01:00.297Z,79.0
2017-08-26T04:02:01.914Z,79.5
2017-08-26T04:03:03.527Z,79.7
2017-08-26T04:04:05.143Z,79.5
2017-08-26T04:05:06.751Z,79.3
2017-08-26T04:06:08.363Z,78.8
2017-08-26T04:07:09.980Z,78.8
2017-08-26T04:08:11.591Z,79.1
2017-08-26T04:09:13.210Z,78.6
2017-08-26T04:10:14.834Z,79.1
2017-08-26T04:11:16.440Z,79.2
2017-08-26T04:12:18.054Z,78.8
2017-08-26T04:13:19.673Z,79.5
2017-08-26T04:14:21.287Z,79.4
2017-08-26T04:15:22.902Z,79.2
2017-08-26T04:16:24.513Z,79.7
2017-08-26T04:17:26.136Z,79.9
2017-08-26T04:18:27.752Z,79.2
2017-08-26T04:19:29.361Z,79.5
2017-08-26T04:20:30.975Z,79.7
2017-08-26T04:21:32.595Z,79.5
2017-08-26T04:22:34.211Z,79.2
2017-08-26T04:23:35.822Z,79.7
2017-08-26T04:24:37.443Z,79.8
2017-08-26T04:25:39.054Z,79.7
2017-08-26T04:26:40.670Z,79.6
2017-08-26T04:27:42.291Z,79.5
2017-08-26T04:28:43.908Z,80.1
2017-08-26T04:29:45.518Z,80.8
2017-08-26T04:30:47.132Z,80.2
2017-08-26T04:31:48.753Z,81.1
2017-08-26T04:32:50.370Z,80.8
2017-08-26T04:33:51.979Z,81.5
2017-08-26T04:34:53.595Z,81.4
2017-08-26T04:35:55.210Z,81.3
2017-08-26T04:36:56.830Z,81.8
2017-08-26T04:37:58.447Z,82.2
2017-08-26T04:39:00.064Z,81.7
2017-08-26T04:40:01.688Z,82.1
2017-08-26T04:41:03.299Z,82.7
2017-08-26T04:42:04.912Z,83.0
2017-08-26T04:43:06.529Z,82.3
2017-08-26T04:44:08.153Z,83.0
2017-08-26T04:45:09.773Z,82.8
2017-08-26T04:46:11.394Z,82.2
2017-08-26T04:47:13.006Z,83.1
2017-08-26T04:48:14.626Z,83.4
2017-08-26T04:49:16.247Z,83.9
2017-08-26T04:50:17.859Z,83.3
2017-08-26T04:51:19.474Z,83.7
2017-08-26T04:52:21.097Z,83.7
2017-08-26T04:53:22.712Z,83.7
2017-08-26T04:54:24.327Z,83.5
2017-08-26T04:55:25.946Z,84.0
2017-08-26T04:56:27.564Z,83.9
2017-08-26T04:57:29.180Z,84.2
2017-08-26T04:58:30.798Z,84.3
2017-08-26T04:59:32.419Z,84.1
2017-08-26T05:00:34.035Z,83.9
2017-08-26T05:01:35.652Z,84.3
2017-08-26T05:02:37.264Z,84.1
2017-08-26T05:03:38.880Z,84.1
2017-08-26T05:04:40.502Z,84.0
2017-08-26T05:05:42.124Z,84.4
2017-08-26T05:06:43.741Z,84.3
2017-08-26T05:07:45.356Z,83.9
2017-08-26T05:08:46.977Z,83.5
2017-08-26T05:09:48.591Z,83.7
2017-08-26T05:10:50.212Z,83.5
2017-08-26T05:11:51.836Z,83.6
2017-08-26T05:12:53.448Z,83.5
2017-08-26T05:13:55.069Z,83.6
2017-08-26T05:14:56.685Z,83.8
2017-08-26T05:15:58.314Z,83.5
2017-08-26T05:16:59.930Z,83.5
2017-08-26T05:18:01.545Z,83.7
2017-08-26T05:19:03.166Z,83.5
2017-08-26T05:20:04.784Z,83.7
2017-08-26T05:21:06.398Z,82.8
2017-08-26T05:22:08.016Z,83.5
2017-08-26T05:23:09.635Z,83.2
2017-08-26T05:24:11.254Z,83.1
2017-08-26T05:25:12.866Z,83.3
2017-08-26T05:26:14.481Z,83.2
2017-08-26T05:27:16.103Z,83.1
2017-08-26T05:28:17.806Z,83.1
2017-08-26T05:29:19.421Z,83.0
2017-08-26T05:30:21.043Z,83.3
2017-08-26T05:31:22.656Z,83.0
2017-08-26T05:32:24.272Z,82.8
2017-08-26T05:33:25.896Z,83.0
2017-08-26T05:34:27.508Z,82.2
2017-08-26T05:35:29.131Z,82.0
2017-08-26T05:36:30.752Z,82.8
2017-08-26T05:37:32.365Z,83.2
2017-08-26T05:38:33.981Z,83.0
2017-08-26T05:39:35.600Z,83.0
2017-08-26T05:40:37.218Z,83.0
2017-08-26T05:41:38.832Z,82.8
2017-08-26T05:42:40.449Z,83.0
2017-08-26T05:43:42.067Z,82.9
2017-08-26T05:44:43.682Z,83.0
2017-08-26T05:45:45.306Z,83.3
2017-08-26T05:46:46.924Z,82.8
2017-08-26T05:47:48.546Z,82.8
2017-08-26T05:48:50.166Z,83.0
2017-08-26T05:49:51.778Z,83.0
2017-08-26T05:50:53.401Z,82.5
2017-08-26T05:51:55.066Z,82.5
2017-08-26T05:52:56.681Z,82.6
2017-08-26T05:53:58.310Z,82.8
2017-08-26T05:55:00.519Z,83.1
2017-08-26T05:56:02.155Z,82.6
2017-08-26T05:57:03.784Z,82.4
2017-08-26T05:58:16.724Z,82.4
2017-08-26T05:59:23.718Z,82.3
2017-08-26T06:00:28.788Z,82.6
2017-08-26T06:01:32.068Z,82.4
2017-08-26T06:02:42.198Z,82.0
2017-08-26T06:03:43.887Z,82.4
2017-08-26T06:04:45.872Z,81.8
2017-08-26T06:05:47.882Z,81.8
2017-08-26T06:06:49.854Z,81.6
2017-08-26T06:07:51.903Z,81.5
2017-08-26T06:08:53.842Z,81.7
2017-08-26T06:09:55.467Z,81.8
2017-08-26T06:12:22.421Z,84.4
2017-08-26T06:13:24.038Z,81.0
2017-08-26T06:15:16.616Z,80.1
2017-08-26T06:16:18.243Z,79.1
2017-08-26T06:18:09.941Z,78.9
2017-08-26T06:19:11.564Z,77.0
2017-08-26T06:21:03.302Z,76.3
2017-08-26T06:22:04.923Z,76.1
2017-08-26T06:23:56.623Z,75.5
2017-08-26T06:24:58.240Z,75.1
2017-08-26T06:26:49.972Z,74.6
2017-08-26T06:27:51.594Z,74.9
2017-08-26T06:29:44.152Z,75.3
2017-08-26T06:30:45.777Z,75.1
2017-08-26T06:32:37.494Z,75.5
2017-08-26T06:33:39.112Z,75.2
2017-08-26T06:35:30.815Z,75.2
2017-08-26T06:36:32.431Z,74.2
2017-08-26T06:38:24.161Z,72.9
2017-08-26T06:39:25.779Z,74.3
2017-08-26T06:41:17.487Z,74.8
2017-08-26T06:42:19.112Z,74.0
2017-08-26T06:44:10.842Z,74.2
2017-08-26T06:45:12.485Z,74.5
2017-08-26T06:47:04.185Z,75.1
2017-08-26T06:48:05.802Z,74.5
2017-08-26T06:49:57.527Z,74.5
2017-08-26T06:50:59.145Z,74.2
2017-08-26T06:52:50.850Z,71.7
2017-08-26T06:53:52.470Z,71.2
2017-08-26T06:55:44.202Z,67.9
2017-08-26T06:56:45.820Z,65.9
2017-08-26T06:58:37.528Z,64.0
2017-08-26T06:59:39.147Z,64.0
2017-08-26T07:01:30.882Z,63.0
2017-08-26T07:02:32.499Z,62.4
2017-08-26T07:04:24.203Z,60.5
2017-08-26T07:05:25.835Z,59.4
2017-08-26T07:07:17.561Z,56.5
2017-08-26T07:12:29.322Z,52.6
2017-08-26T07:13:30.954Z,51.8
2017-08-26T07:14:32.582Z,50.9
2017-08-26T07:15:34.209Z,51.0
2017-08-26T07:16:35.835Z,51.0
2017-08-26T07:17:37.465Z,50.2
2017-08-26T07:18:39.095Z,48.8
2017-08-26T07:19:40.719Z,48.5
2017-08-26T07:20:42.370Z,48.4
2017-08-26T07:21:44.001Z,46.8
2017-08-26T07:22:45.629Z,47.3
2017-08-26T07:23:47.257Z,46.9
2017-08-26T07:24:48.886Z,46.8
2017-08-26T07:25:50.513Z,46.6
2017-08-26T07:26:52.142Z,45.7
2017-08-26T07:27:53.774Z,44.7
2017-08-26T07:28:55.401Z,43.8
2017-08-26T07:29:57.028Z,43.8
2017-08-26T07:30:58.655Z,42.9
2017-08-26T07:32:00.289Z,42.2
2017-08-26T07:33:01.921Z,42.6
2017-08-26T07:34:03.559Z,41.6
2017-08-26T07:35:05.191Z,42.2
2017-08-26T07:36:06.814Z,44.0
2017-08-26T07:37:08.440Z,45.0
2017-08-26T07:38:10.075Z,46.9
2017-08-26T07:39:11.706Z,47.2
2017-08-26T07:40:13.334Z,48.3
2017-08-26T07:41:14.965Z,48.5
2017-08-26T07:42:16.597Z,49.4
2017-08-26T07:43:18.226Z,50.2
2017-08-26T07:44:19.851Z,50.9
2017-08-26T07:45:21.481Z,51.7
2017-08-26T07:46:23.113Z,52.8
2017-08-26T07:47:24.742Z,53.0
2017-08-26T07:48:26.368Z,53.5
2017-08-26T07:49:27.994Z,54.2
2017-08-26T07:50:29.620Z,54.9
2017-08-26T07:51:31.253Z,55.2
2017-08-26T07:52:32.882Z,55.2
2017-08-26T07:53:34.507Z,55.7
2017-08-26T07:54:36.137Z,55.9
2017-08-26T07:55:37.764Z,56.7
2017-08-26T07:56:39.396Z,56.3
2017-08-26T07:57:41.024Z,57.2
2017-08-26T07:58:42.648Z,56.9
2017-08-26T07:59:44.276Z,56.7
2017-08-26T08:00:45.909Z,56.7
2017-08-26T08:01:47.535Z,57.0
2017-08-26T08:02:49.167Z,58.3
2017-08-26T08:03:50.791Z,57.9
2017-08-26T08:04:52.416Z,58.1
2017-08-26T08:05:54.046Z,58.9
2017-08-26T08:06:55.675Z,56.7
2017-08-26T08:07:57.302Z,55.8
2017-08-26T08:08:58.929Z,54.3
2017-08-26T08:10:00.561Z,53.0
2017-08-26T08:11:02.191Z,52.8
2017-08-26T08:12:03.818Z,52.1
2017-08-26T08:13:05.443Z,49.5
2017-08-26T08:14:07.070Z,49.0
2017-08-26T08:15:08.695Z,46.8
2017-08-26T08:16:10.328Z,45.6
2017-08-26T08:17:11.962Z,45.1
2017-08-26T08:18:13.594Z,43.9
2017-08-26T08:19:15.223Z,42.3
2017-08-26T08:20:16.848Z,42.5
2017-08-26T08:21:18.487Z,42.9
2017-08-26T08:22:20.114Z,43.4
2017-08-26T08:23:21.746Z,44.0
2017-08-26T08:24:23.376Z,45.8
2017-08-26T08:25:25.006Z,46.5
2017-08-26T08:26:26.638Z,46.8
2017-08-26T08:27:28.273Z,47.3
2017-08-26T08:28:29.905Z,48.6
2017-08-26T08:29:31.534Z,48.7
2017-08-26T08:30:33.176Z,49.2
2017-08-26T08:31:34.803Z,49.5
2017-08-26T08:32:36.432Z,49.8
2017-08-26T08:33:38.056Z,49.5
2017-08-26T08:34:39.685Z,50.3
2017-08-26T08:35:41.312Z,50.3
2017-08-26T08:36:42.948Z,50.3
2017-08-26T08:37:44.579Z,52.1
2017-08-26T08:38:46.208Z,52.6
2017-08-26T08:39:47.835Z,52.3
2017-08-26T08:40:49.465Z,52.7
2017-08-26T08:41:51.095Z,52.8
2017-08-26T08:42:52.720Z,53.1
2017-08-26T08:43:54.346Z,54.0
2017-08-26T08:44:55.976Z,53.6
2017-08-26T08:45:57.612Z,54.0
2017-08-26T08:46:59.241Z,54.4
2017-08-26T08:48:00.869Z,54.0
2017-08-26T08:49:02.507Z,53.9
2017-08-26T08:50:04.137Z,53.3
2017-08-26T08:51:05.761Z,53.9
2017-08-26T08:52:07.395Z,53.2
2017-08-26T08:53:09.025Z,51.3
2017-08-26T08:54:10.653Z,51.1
2017-08-26T08:55:12.278Z,50.6
2017-08-26T08:56:13.912Z,50.9
2017-08-26T08:57:15.537Z,50.5
2017-08-26T08:58:17.167Z,51.1
2017-08-26T08:59:18.800Z,50.5
2017-08-26T09:00:20.436Z,51.0
2017-08-26T09:01:22.061Z,51.0
2017-08-26T09:02:23.686Z,50.7
2017-08-26T09:03:25.323Z,50.8
2017-08-26T09:04:26.952Z,51.1
2017-08-26T09:05:28.580Z,50.7
2017-08-26T09:06:30.211Z,52.1
2017-08-26T09:07:31.844Z,51.4
2017-08-26T09:08:33.469Z,50.8
2017-08-26T09:09:35.102Z,50.5
2017-08-26T09:10:36.732Z,50.9
2017-08-26T09:11:38.358Z,51.0
2017-08-26T09:12:39.991Z,51.6
2017-08-26T09:13:41.623Z,51.3
2017-08-26T09:14:43.246Z,50.9
2017-08-26T09:15:44.883Z,52.1
2017-08-26T09:16:46.505Z,52.0
2017-08-26T09:17:48.138Z,52.9
2017-08-26T09:18:49.756Z,54.6
2017-08-26T09:19:51.387Z,54.7
2017-08-26T09:20:53.012Z,55.7
2017-08-26T09:21:54.650Z,55.8
2017-08-26T09:22:56.278Z,55.9
2017-08-26T09:23:57.902Z,56.1
2017-08-26T09:24:59.548Z,56.2
2017-08-26T09:26:01.157Z,56.0
2017-08-26T09:27:02.784Z,56.1
2017-08-26T09:28:04.417Z,57.1
2017-08-26T09:29:06.040Z,57.8
2017-08-26T09:30:07.663Z,57.5
2017-08-26T09:31:09.293Z,58.0
2017-08-26T09:32:10.924Z,59.0
2017-08-26T09:33:12.547Z,59.3
2017-08-26T09:34:14.180Z,58.8
2017-08-26T09:35:15.806Z,58.7
2017-08-26T09:36:17.430Z,59.0
2017-08-26T09:37:19.060Z,59.6
2017-08-26T09:38:20.685Z,59.6
2017-08-26T09:39:22.306Z,60.0
2017-08-26T09:40:23.931Z,61.1
2017-08-26T09:41:25.559Z,60.5
2017-08-26T09:42:27.182Z,61.2
2017-08-26T09:43:28.807Z,61.2
2017-08-26T09:44:30.435Z,61.3
2017-08-26T09:45:32.056Z,60.8
2017-08-26T09:46:33.679Z,59.9
2017-08-26T09:47:35.309Z,60.8
2017-08-26T09:48:36.941Z,61.0
2017-08-26T09:49:38.563Z,59.5
2017-08-26T09:50:40.197Z,59.9
2017-08-26T09:51:41.825Z,59.7
2017-08-26T09:52:43.454Z,59.7
2017-08-26T09:53:45.078Z,59.5
2017-08-26T09:54:46.702Z,59.4
2017-08-26T09:55:48.334Z,59.0
2017-08-26T09:56:49.963Z,58.9
2017-08-26T09:57:51.587Z,58.9
2017-08-26T09:58:53.212Z,59.1
2017-08-26T09:59:54.840Z,59.4
2017-08-26T10:00:56.468Z,59.6
2017-08-26T10:01:58.098Z,59.9
2017-08-26T10:02:59.721Z,59.6
2017-08-26T10:04:01.347Z,59.5
2017-08-26T10:05:02.979Z,59.7
2017-08-26T10:06:04.604Z,59.3
2017-08-26T10:07:06.226Z,59.9
2017-08-26T10:08:07.850Z,59.6
2017-08-26T10:09:09.481Z,60.3
2017-08-26T10:10:11.110Z,60.9
2017-08-26T10:11:12.734Z,60.4
2017-08-26T10:12:14.358Z,60.1
2017-08-26T10:13:15.992Z,57.3
2017-08-26T10:14:17.611Z,56.8
2017-08-26T10:15:19.241Z,57.3
2017-08-26T10:16:20.869Z,58.5
2017-08-26T10:17:22.491Z,59.9
2017-08-26T10:18:24.118Z,58.9
2017-08-26T10:19:25.749Z,57.8
2017-08-26T10:20:27.377Z,58.9
2017-08-26T10:21:29.000Z,59.1
2017-08-26T10:22:30.622Z,59.7
2017-08-26T10:23:32.252Z,61.1
2017-08-26T10:24:33.882Z,63.0
2017-08-26T10:25:35.530Z,63.6
2017-08-26T10:26:37.158Z,62.8
2017-08-26T10:27:38.779Z,63.6
2017-08-26T10:28:40.418Z,64.0
2017-08-26T10:29:42.388Z,63.9
2017-08-26T10:30:44.046Z,62.3
2017-08-26T10:31:45.735Z,63.7
2017-08-26T10:32:48.040Z,64.6
2017-08-26T10:33:49.783Z,64.1
2017-08-26T10:34:51.903Z,63.8
2017-08-26T10:35:53.825Z,63.3
2017-08-26T10:36:55.799Z,63.9
2017-08-26T10:38:08.829Z,63.7
2017-08-26T10:39:10.551Z,62.8
2017-08-26T10:40:12.440Z,62.9
2017-08-26T10:41:14.315Z,63.0
2017-08-26T10:42:16.180Z,62.2
2017-08-26T10:43:18.134Z,63.2
2017-08-26T10:44:20.059Z,62.4
2017-08-26T10:45:21.692Z,62.2
2017-08-26T10:46:23.339Z,62.4
2017-08-26T10:47:24.946Z,62.3
2017-08-26T10:48:26.570Z,62.3
2017-08-26T10:49:28.195Z,62.3
2017-08-26T10:50:30.053Z,62.1
2017-08-26T10:51:42.441Z,62.7
2017-08-26T10:52:55.686Z,62.1
2017-08-26T10:54:07.721Z,62.6
2017-08-26T10:55:17.249Z,61.6
2017-08-26T10:56:18.907Z,62.4
2017-08-26T10:57:23.375Z,62.0
2017-08-26T10:58:24.997Z,61.5
2017-08-26T10:59:26.603Z,60.9
2017-08-26T11:00:40.253Z,60.0
2017-08-26T11:01:52.579Z,60.7
2017-08-26T11:03:05.809Z,59.0
2017-08-26T11:04:07.738Z,59.1
2017-08-26T11:05:19.072Z,58.6
2017-08-26T11:06:20.679Z,59.2
2017-08-26T11:07:22.304Z,58.4
2017-08-26T11:08:23.934Z,54.7
2017-08-26T11:09:25.570Z,54.5
2017-08-26T11:10:27.199Z,54.0
2017-08-26T11:11:28.830Z,52.8
2017-08-26T11:12:30.467Z,51.4
2017-08-26T11:13:32.101Z,48.6
2017-08-26T11:14:33.734Z,49.6
2017-08-26T11:15:35.363Z,48.3
2017-08-26T11:16:36.998Z,47.9
2017-08-26T11:17:38.635Z,47.9
2017-08-26T11:18:40.271Z,47.4
2017-08-26T11:19:41.901Z,45.8
2017-08-26T11:20:43.546Z,45.8
2017-08-26T11:21:45.164Z,45.3
2017-08-26T11:22:46.803Z,45.7
2017-08-26T11:23:48.438Z,46.5
2017-08-26T11:24:50.071Z,46.9
2017-08-26T11:25:51.704Z,46.6
2017-08-26T11:26:53.340Z,45.8
2017-08-26T11:27:54.976Z,46.7
2017-08-26T11:28:56.602Z,47.8
2017-08-26T11:29:58.236Z,47.9
2017-08-26T11:30:59.871Z,47.1
2017-08-26T11:32:01.507Z,47.2
2017-08-26T11:33:03.442Z,47.8
2017-08-26T11:34:05.073Z,47.9
2017-08-26T11:35:06.711Z,48.4
2017-08-26T11:36:08.335Z,47.9
2017-08-26T11:37:09.967Z,47.0
2017-08-26T11:38:11.603Z,47.0
2017-08-26T11:39:13.236Z,46.8
2017-08-26T11:40:14.872Z,46.9
2017-08-26T11:41:16.500Z,48.6
2017-08-26T11:42:18.128Z,49.6
2017-08-26T11:43:19.766Z,49.2
2017-08-26T11:44:21.400Z,48.6
2017-08-26T11:45:23.030Z,47.8
2017-08-26T11:46:24.661Z,48.1
2017-08-26T11:47:26.293Z,48.7
2017-08-26T11:48:27.930Z,46.8
2017-08-26T11:49:29.560Z,45.9
2017-08-26T11:50:31.188Z,46.8
2017-08-26T11:51:32.832Z,47.1
2017-08-26T11:52:34.459Z,46.2
2017-08-26T11:53:36.093Z,46.8
2017-08-26T11:54:37.752Z,46.9
2017-08-26T11:55:39.354Z,47.1
2017-08-26T11:56:40.982Z,46.8
2017-08-26T11:57:42.618Z,46.9
2017-08-26T11:58:44.255Z,46.7
2017-08-26T11:59:45.888Z,47.1
2017-08-26T12:00:47.515Z,46.9
2017-08-26T12:01:49.151Z,47.7
2017-08-26T12:02:50.783Z,47.8
2017-08-26T12:03:52.413Z,48.0
2017-08-26T12:04:54.040Z,49.1
2017-08-26T12:05:55.667Z,49.1
2017-08-26T12:06:57.296Z,49.0
2017-08-26T12:07:58.927Z,50.0
2017-08-26T12:09:00.563Z,50.2
2017-08-26T12:10:02.195Z,50.2
2017-08-26T12:11:03.826Z,49.6
2017-08-26T12:12:05.452Z,49.7
2017-08-26T12:13:07.078Z,49.7
2017-08-26T12:14:08.726Z,50.1
2017-08-26T12:15:10.345Z,50.5
2017-08-26T12:16:11.971Z,51.5
2017-08-26T12:17:13.608Z,51.2
2017-08-26T12:18:15.232Z,51.5
2017-08-26T12:19:16.863Z,51.4
2017-08-26T12:20:18.493Z,52.3
2017-08-26T12:21:20.121Z,52.3
2017-08-26T12:22:21.746Z,52.1
2017-08-26T12:23:23.374Z,52.2
2017-08-26T12:24:25.001Z,52.7
2017-08-26T12:25:26.629Z,53.9
2017-08-26T12:26:28.270Z,53.8
2017-08-26T12:27:29.897Z,53.6
2017-08-26T12:28:31.523Z,54.6
2017-08-26T12:29:33.158Z,54.6
2017-08-26T12:30:34.789Z,55.8
2017-08-26T12:31:36.416Z,53.4
2017-08-26T12:32:38.046Z,53.2
2017-08-26T12:33:39.667Z,54.5
2017-08-26T12:34:41.297Z,54.2
2017-08-26T12:35:42.927Z,54.8
2017-08-26T12:36:44.556Z,54.9
2017-08-26T12:37:46.182Z,55.7
2017-08-26T12:38:47.825Z,54.2
2017-08-26T12:39:49.438Z,55.8
2017-08-26T12:40:51.066Z,55.7
2017-08-26T12:41:52.690Z,56.2
2017-08-26T12:42:54.315Z,56.1
2017-08-26T12:43:55.950Z,56.1
2017-08-26T12:44:57.584Z,56.2
2017-08-26T12:45:59.205Z,55.9
2017-08-26T12:47:00.829Z,55.9
2017-08-26T12:48:02.473Z,57.5
2017-08-26T12:49:04.083Z,57.4
2017-08-26T12:50:05.714Z,57.3
2017-08-26T12:51:07.337Z,58.0
2017-08-26T12:52:08.963Z,57.2
2017-08-26T12:53:10.589Z,56.6
2017-08-26T12:54:12.219Z,54.7
2017-08-26T12:55:13.846Z,54.4
2017-08-26T12:56:15.473Z,53.5
2017-08-26T12:57:17.100Z,52.6
2017-08-26T12:58:18.732Z,52.9
2017-08-26T12:59:20.369Z,52.6
2017-08-26T13:00:21.990Z,52.2
2017-08-26T13:01:23.617Z,52.5
2017-08-26T13:02:25.244Z,52.2
2017-08-26T13:03:26.878Z,52.9
2017-08-26T13:04:28.501Z,51.5
2017-08-26T13:05:30.134Z,52.3
2017-08-26T13:06:31.768Z,52.4
2017-08-26T13:07:33.389Z,53.1
2017-08-26T13:08:35.013Z,52.0
2017-08-26T13:09:36.640Z,53.3
2017-08-26T13:10:38.273Z,53.0
2017-08-26T13:11:39.903Z,54.0
2017-08-26T13:12:41.535Z,53.5
2017-08-26T13:13:43.170Z,51.9
2017-08-26T13:14:44.794Z,52.9
2017-08-26T13:15:46.418Z,53.3
2017-08-26T13:16:48.047Z,52.9
2017-08-26T13:17:49.678Z,52.6
2017-08-26T13:18:51.309Z,52.0
2017-08-26T13:19:52.935Z,52.3
2017-08-26T13:20:54.567Z,52.2
2017-08-26T13:21:56.214Z,51.9
2017-08-26T13:22:57.826Z,52.4
2017-08-26T13:23:59.452Z,52.5
2017-08-26T13:25:01.080Z,52.2
2017-08-26T13:26:02.715Z,52.4
2017-08-26T13:27:04.366Z,52.9
2017-08-26T13:28:05.975Z,53.1
2017-08-26T13:29:07.607Z,52.6
2017-08-26T13:30:09.232Z,52.5
2017-08-26T13:31:10.860Z,52.6
2017-08-26T13:32:12.485Z,52.1
2017-08-26T13:33:14.119Z,52.3
2017-08-26T13:34:15.743Z,53.1
2017-08-26T13:35:17.380Z,52.9
2017-08-26T13:36:19.007Z,52.6
2017-08-26T13:37:20.636Z,52.8
2017-08-26T13:38:22.260Z,53.0
2017-08-26T13:39:23.889Z,53.2
2017-08-26T13:40:25.525Z,53.3
2017-08-26T13:41:27.149Z,53.2
2017-08-26T13:42:28.775Z,53.0
2017-08-26T13:43:30.401Z,53.9
2017-08-26T13:44:32.033Z,52.8
2017-08-26T13:45:33.664Z,53.1
2017-08-26T13:46:35.287Z,53.0
2017-08-26T13:47:36.917Z,52.9
2017-08-26T13:48:38.544Z,53.6
2017-08-26T13:49:40.180Z,53.1
2017-08-26T13:50:41.803Z,53.2
2017-08-26T13:51:43.425Z,53.4
2017-08-26T13:52:45.060Z,53.2
2017-08-26T13:53:46.690Z,52.8
2017-08-26T13:54:48.316Z,52.9
2017-08-26T13:55:49.944Z,53.2
2017-08-26T13:56:51.575Z,53.1
2017-08-26T13:57:53.205Z,53.4
2017-08-26T13:58:54.830Z,53.8
2017-08-26T13:59:56.460Z,54.0
2017-08-26T14:00:58.089Z,53.8
2017-08-26T14:01:59.719Z,53.5
2017-08-26T14:03:01.352Z,53.5
2017-08-26T14:04:02.976Z,54.1